Observation data for Levelland on 02/14/2018      Previous  Date  Next       Current Mesonet Observations  Soil Data  Daily Summary Page  Observations in Plain Language
KLD1 140605Z 19007KT 07/M01 A3024 RMK A01 T00681012  RH  058%=      5-min Rain = 0
KLD1 140610Z 20008KT 07/M01 A3024 RMK A01 T00671012  RH  058%=      5-min Rain = 0
KLD1 140615Z 20007KT 07/M01 A3024 RMK A01 T00681012  RH  058%=      5-min Rain = 0
KLD1 140620Z 20005KT 07/M01 A3024 RMK A01 T00681011  RH  058%=      5-min Rain = 0
KLD1 140625Z 20005KT 07/M01 A3024 RMK A01 T00681012  RH  057%=      5-min Rain = 0
KLD1 140630Z 20007KT 07/M01 A3024 RMK A01 T00671012  RH  057%=      5-min Rain = 0
KLD1 140635Z 19007KT 07/M01 A3024 RMK A01 T00671013  RH  057%=      5-min Rain = 0
KLD1 140640Z 20008KT 07/M01 A3024 RMK A01 T00671013  RH  057%=      5-min Rain = 0
KLD1 140645Z 20007KT 07/M01 A3023 RMK A01 T00671013  RH  057%=      5-min Rain = 0
KLD1 140650Z 20007KT 07/M01 A3023 RMK A01 T00691012  RH  057%=      5-min Rain = 0
KLD1 140655Z 20007KT 07/M01 A3023 RMK A01 T00721011  RH  056%=      5-min Rain = 0
KLD1 140700Z 20008KT 08/M01 A3023 RMK A01 T00751010  RH  056%=      5-min Rain = 0
KLD1 140705Z 20008KT 08/M01 A3023 RMK A01 T00761009  RH  055%=      5-min Rain = 0
KLD1 140710Z 20008KT 08/M01 A3023 RMK A01 T00771009  RH  055%=      5-min Rain = 0
KLD1 140715Z 21008KT 08/M01 A3023 RMK A01 T00781009  RH  055%=      5-min Rain = 0
KLD1 140720Z 21007KT 08/M01 A3023 RMK A01 T00791009  RH  054%=      5-min Rain = 0
KLD1 140725Z 21007KT 08/M01 A3023 RMK A01 T00801009  RH  054%=      5-min Rain = 0
KLD1 140730Z 21007KT 08/M01 A3024 RMK A01 T00791010  RH  054%=      5-min Rain = 0
KLD1 140735Z 21006KT 08/M01 A3023 RMK A01 T00781011  RH  054%=      5-min Rain = 0
KLD1 140740Z 22004KT 08/M01 A3023 RMK A01 T00761012  RH  054%=      5-min Rain = 0
KLD1 140745Z 24003KT 07/M01 A3023 RMK A01 T00741013  RH  054%=      5-min Rain = 0
KLD1 140750Z 27002KT 07/M02 A3023 RMK A01 T00711015  RH  055%=      5-min Rain = 0
KLD1 140755Z 23004KT 07/M02 A3023 RMK A01 T00651016  RH  056%=      5-min Rain = 0
KLD1 140800Z 23005KT 06/M02 A3022 RMK A01 T00631017  RH  057%=      5-min Rain = 0
KLD1 140805Z 22005KT 06/M02 A3022 RMK A01 T00631017  RH  057%=      5-min Rain = 0
KLD1 140810Z 22005KT 06/M02 A3022 RMK A01 T00641017  RH  057%=      5-min Rain = 0
KLD1 140815Z 22005KT 06/M02 A3022 RMK A01 T00641017  RH  056%=      5-min Rain = 0
KLD1 140820Z 21005KT 06/M02 A3022 RMK A01 T00641018  RH  056%=      5-min Rain = 0
KLD1 140825Z 19004KT 06/M02 A3022 RMK A01 T00641018  RH  056%=      5-min Rain = 0
KLD1 140830Z 19004KT 06/M02 A3022 RMK A01 T00641019  RH  056%=      5-min Rain = 0
KLD1 140835Z 17003KT 06/M03 A3022 RMK A01 T00621025  RH  055%=      5-min Rain = 0
KLD1 140840Z 17002KT 05/M03 A3021 RMK A01 T00511030  RH  057%=      5-min Rain = 0
KLD1 140845Z 18003KT 05/M03 A3021 RMK A01 T00461028  RH  059%=      5-min Rain = 0
KLD1 140850Z 18005KT 05/M02 A3021 RMK A01 T00491021  RH  061%=      5-min Rain = 0
KLD1 140855Z 18006KT 06/M02 A3021 RMK A01 T00561019  RH  059%=      5-min Rain = 0
KLD1 140900Z 19007KT 06/M02 A302 RMK A01 T00601018  RH  058%=      5-min Rain = 0
KLD1 140905Z 19007KT 06/M02 A302 RMK A01 T00641017  RH  057%=      5-min Rain = 0
KLD1 140910Z 19007KT 07/M02 A302 RMK A01 T00671016  RH  056%=      5-min Rain = 0
KLD1 140915Z 19007KT 07/M02 A302 RMK A01 T00671017  RH  056%=      5-min Rain = 0
KLD1 140920Z 19007KT 07/M02 A302 RMK A01 T00661017  RH  056%=      5-min Rain = 0
KLD1 140925Z 20007KT 07/M02 A302 RMK A01 T00681017  RH  055%=      5-min Rain = 0
KLD1 140930Z 20007KT 07/M02 A302 RMK A01 T00711017  RH  054%=      5-min Rain = 0
KLD1 140935Z 20007KT 07/M02 A302 RMK A01 T00711018  RH  054%=      5-min Rain = 0
KLD1 140940Z 20007KT 07/M02 A302 RMK A01 T00701020  RH  053%=      5-min Rain = 0
KLD1 140945Z 21006KT 07/M02 A302 RMK A01 T00691021  RH  053%=      5-min Rain = 0
KLD1 140950Z 21006KT 07/M02 A302 RMK A01 T00661022  RH  054%=      5-min Rain = 0
KLD1 140955Z 21006KT 06/M02 A302 RMK A01 T00631024  RH  054%=      5-min Rain = 0
KLD1 141000Z 21006KT 06/M03 A302 RMK A01 T00601025  RH  055%=      5-min Rain = 0
KLD1 141005Z 19005KT 06/M03 A302 RMK A01 T00571026  RH  055%=      5-min Rain = 0
KLD1 141010Z 18004KT 05/M03 A302 RMK A01 T00541028  RH  056%=      5-min Rain = 0
KLD1 141015Z 20002KT 05/M03 A302 RMK A01 T00511029  RH  057%=      5-min Rain = 0
KLD1 141020Z 22003KT 05/M03 A302 RMK A01 T00471029  RH  058%=      5-min Rain = 0
KLD1 141025Z 21004KT 05/M03 A302 RMK A01 T00471027  RH  059%=      5-min Rain = 0
KLD1 141030Z 20005KT 05/M03 A302 RMK A01 T00481027  RH  059%=      5-min Rain = 0
KLD1 141035Z 21004KT 05/M03 A302 RMK A01 T00491026  RH  059%=      5-min Rain = 0
KLD1 141040Z 22004KT 05/M03 A302 RMK A01 T00501026  RH  058%=      5-min Rain = 0
KLD1 141045Z 21005KT 05/M03 A3021 RMK A01 T00491027  RH  058%=      5-min Rain = 0
KLD1 141050Z 19006KT 05/M03 A302 RMK A01 T00501026  RH  059%=      5-min Rain = 0
KLD1 141055Z 20006KT 05/M03 A302 RMK A01 T00541025  RH  058%=      5-min Rain = 0
KLD1 141100Z 20005KT 06/M02 A302 RMK A01 T00561024  RH  057%=      5-min Rain = 0
KLD1 141105Z 20005KT 06/M02 A302 RMK A01 T00591024  RH  056%=      5-min Rain = 0
KLD1 141110Z 20005KT 06/M02 A3021 RMK A01 T00601024  RH  055%=      5-min Rain = 0
KLD1 141115Z 20006KT 06/M02 A3021 RMK A01 T00611024  RH  055%=      5-min Rain = 0
KLD1 141120Z 19006KT 06/M03 A302 RMK A01 T00611025  RH  055%=      5-min Rain = 0
KLD1 141125Z 19007KT 06/M03 A3021 RMK A01 T00601025  RH  055%=      5-min Rain = 0
KLD1 141130Z 20007KT 06/M03 A3021 RMK A01 T00591025  RH  055%=      5-min Rain = 0
KLD1 141135Z 20008KT 06/M03 A3021 RMK A01 T00581025  RH  056%=      5-min Rain = 0
KLD1 141140Z 20007KT 06/M03 A3021 RMK A01 T00571026  RH  056%=      5-min Rain = 0
KLD1 141145Z 20007KT 06/M03 A3021 RMK A01 T00561025  RH  056%=      5-min Rain = 0
KLD1 141150Z 20007KT 06/M03 A3021 RMK A01 T00561026  RH  056%=      5-min Rain = 0
KLD1 141155Z 20006KT 05/M03 A302 RMK A01 T00541027  RH  057%=      5-min Rain = 0
KLD1 141200Z 21007KT 05/M03 A3021 RMK A01 T00521027  RH  057%=      5-min Rain = 0
KLD1 141205Z 21007KT 05/M03 A3021 RMK A01 T00521027  RH  057%=      5-min Rain = 0
KLD1 141210Z 21007KT 05/M03 A3021 RMK A01 T00541026  RH  057%=      5-min Rain = 0
KLD1 141215Z 21007KT 06/M03 A302 RMK A01 T00571026  RH  056%=      5-min Rain = 0
KLD1 141220Z 22007KT 06/M03 A302 RMK A01 T00601025  RH  055%=      5-min Rain = 0
KLD1 141225Z 21008KT 06/M03 A302 RMK A01 T00621025  RH  054%=      5-min Rain = 0
KLD1 141230Z 22009KT 07/M02 A302 RMK A01 T00661024  RH  053%=      5-min Rain = 0
KLD1 141235Z 22008KT 07/M02 A3019 RMK A01 T00691023  RH  052%=      5-min Rain = 0
KLD1 141240Z 22010KT 07/M02 A302 RMK A01 T00701023  RH  052%=      5-min Rain = 0
KLD1 141245Z 22010KT 07/M02 A302 RMK A01 T00701024  RH  052%=      5-min Rain = 0
KLD1 141250Z 23009KT 07/M03 A3019 RMK A01 T00691025  RH  052%=      5-min Rain = 0
KLD1 141255Z 24010KT 07/M03 A302 RMK A01 T00671025  RH  052%=      5-min Rain = 0
KLD1 141300Z 23010KT 07/M02 A302 RMK A01 T00721024  RH  051%=      5-min Rain = 0
KLD1 141305Z 24010KT 07/M03 A302 RMK A01 T00741025  RH  050%=      5-min Rain = 0
KLD1 141310Z 23009KT 08/M03 A302 RMK A01 T00761025  RH  049%=      5-min Rain = 0
KLD1 141315Z 23009KT 08/M03 A302 RMK A01 T00761025  RH  049%=      5-min Rain = 0
KLD1 141320Z 23008KT 07/M03 A302 RMK A01 T00741026  RH  050%=      5-min Rain = 0
KLD1 141325Z 21007KT 07/M03 A302 RMK A01 T00721027  RH  050%=      5-min Rain = 0
KLD1 141330Z 20006KT 07/M03 A302 RMK A01 T00681027  RH  051%=      5-min Rain = 0
KLD1 141335Z 18006KT 07/M03 A302 RMK A01 T00661027  RH  052%=      5-min Rain = 0
KLD1 141340Z 20005KT 06/M03 A302 RMK A01 T00641027  RH  053%=      5-min Rain = 0
KLD1 141345Z 20006KT 07/M03 A302 RMK A01 T00651026  RH  053%=      5-min Rain = 0
KLD1 141350Z 20006KT 07/M03 A302 RMK A01 T00661026  RH  052%=      5-min Rain = 0
KLD1 141355Z 20006KT 07/M03 A302 RMK A01 T00671026  RH  052%=      5-min Rain = 0
KLD1 141400Z 20005KT 07/M03 A302 RMK A01 T00701025  RH  051%=      5-min Rain = 0
KLD1 141405Z 22004KT 07/M02 A302 RMK A01 T00731024  RH  051%=      5-min Rain = 0
KLD1 141410Z 22006KT 08/M02 A302 RMK A01 T00781024  RH  049%=      5-min Rain = 0
KLD1 141415Z 21006KT 08/M02 A3019 RMK A01 T00811024  RH  048%=      5-min Rain = 0
KLD1 141420Z 22007KT 08/M02 A302 RMK A01 T00831023  RH  048%=      5-min Rain = 0
KLD1 141425Z 23008KT 09/M02 A302 RMK A01 T00861023  RH  047%=      5-min Rain = 0
KLD1 141430Z 23007KT 09/M02 A302 RMK A01 T00891023  RH  046%=      5-min Rain = 0
KLD1 141435Z 23007KT 09/M02 A302 RMK A01 T00931023  RH  045%=      5-min Rain = 0
KLD1 141440Z 22007KT 09/M02 A302 RMK A01 T00941022  RH  044%=      5-min Rain = 0
KLD1 141445Z 22007KT 10/M02 A302 RMK A01 T00951022  RH  044%=      5-min Rain = 0
KLD1 141450Z 22008KT 10/M02 A302 RMK A01 T00961022  RH  044%=      5-min Rain = 0
KLD1 141455Z 21008KT 10/M02 A302 RMK A01 T01011020  RH  043%=      5-min Rain = 0
KLD1 141500Z 21008KT 10/M02 A302 RMK A01 T01041020  RH  042%=      5-min Rain = 0
KLD1 141505Z 22007KT 11/M02 A302 RMK A01 T01101019  RH  041%=      5-min Rain = 0
KLD1 141510Z 21007KT 12/M02 A302 RMK A01 T01151019  RH  040%=      5-min Rain = 0
KLD1 141515Z 21008KT 12/M02 A302 RMK A01 T01181020  RH  039%=      5-min Rain = 0
KLD1 141520Z 21009KT 12/M02 A302 RMK A01 T01181019  RH  039%=      5-min Rain = 0
KLD1 141525Z 22008KT 12/M02 A302 RMK A01 T01201018  RH  038%=      5-min Rain = 0
KLD1 141530Z 21008KT 13/M02 A302 RMK A01 T01251018  RH  038%=      5-min Rain = 0
KLD1 141535Z 22010KT 13/M02 A302 RMK A01 T01291018  RH  037%=      5-min Rain = 0
KLD1 141540Z 21008KT 13/M02 A302 RMK A01 T01331016  RH  036%=      5-min Rain = 0
KLD1 141545Z 21010KT 14/M02 A302 RMK A01 T01411017  RH  034%=      5-min Rain = 0
KLD1 141550Z 21011KT 15/M02 A302 RMK A01 T01461017  RH  033%=      5-min Rain = 0
KLD1 141555Z 22011KT 15/M02 A302 RMK A01 T01521017  RH  032%=      5-min Rain = 0
KLD1 141600Z 22010KT 16/M02 A302 RMK A01 T01591017  RH  030%=      5-min Rain = 0
KLD1 141605Z 21009G14KT 17/M02 A302 RMK A01 T01681016  RH  029%=      5-min Rain = 0
KLD1 141610Z 21014G20KT 17/M02 A302 RMK A01 T01741019  RH  027%=      5-min Rain = 0
KLD1 141615Z 21014G20KT 18/M02 A302 RMK A01 T01781021  RH  026%=      5-min Rain = 0
KLD1 141620Z 22014G19KT 18/M02 A302 RMK A01 T01811022  RH  025%=      5-min Rain = 0
KLD1 141625Z 21014KT 18/M03 A3019 RMK A01 T01841026  RH  024%=      5-min Rain = 0
KLD1 141630Z 21016KT 19/M03 A302 RMK A01 T01861028  RH  024%=      5-min Rain = 0
KLD1 141635Z 21013G18KT 19/M03 A302 RMK A01 T01901027  RH  023%=      5-min Rain = 0
KLD1 141640Z 21014G19KT 20/M03 A3019 RMK A01 T01951029  RH  022%=      5-min Rain = 0
KLD1 141645Z 21014KT 20/M04 A3019 RMK A01 T02001036  RH  020%=      5-min Rain = 0
KLD1 141650Z 21015G20KT 20/M04 A3019 RMK A01 T01991041  RH  020%=      5-min Rain = 0
KLD1 141655Z 21016G21KT 20/M05 A3019 RMK A01 T02021045  RH  019%=      5-min Rain = 0
KLD1 141700Z 21013G19KT 21/M04 A3019 RMK A01 T02111040  RH  018%=      5-min Rain = 0
KLD1 141705Z 21014KT 21/M05 A3019 RMK A01 T02081047  RH  018%=      5-min Rain = 0
KLD1 141710Z 21014KT 21/M05 A3019 RMK A01 T02071050  RH  017%=      5-min Rain = 0
KLD1 141715Z 21015KT 21/M06 A3019 RMK A01 T02121056  RH  016%=      5-min Rain = 0
KLD1 141720Z 21017KT 22/M06 A3018 RMK A01 T02171063  RH  015%=      5-min Rain = 0
KLD1 141725Z 22014KT 22/M06 A3018 RMK A01 T02231061  RH  015%=      5-min Rain = 0
KLD1 141730Z 22016KT 23/M06 A3018 RMK A01 T02261064  RH  014%=      5-min Rain = 0
KLD1 141735Z 22016G21KT 23/M07 A3017 RMK A01 T02281067  RH  014%=      5-min Rain = 0
KLD1 141740Z 21017KT 23/M07 A3017 RMK A01 T02281069  RH  013%=      5-min Rain = 0
KLD1 141745Z 21016KT 23/M07 A3017 RMK A01 T02321068  RH  013%=      5-min Rain = 0
KLD1 141750Z 21018G23KT 23/M07 A3016 RMK A01 T02331070  RH  013%=      5-min Rain = 0
KLD1 141755Z 22019G24KT 23/M07 A3016 RMK A01 T02321071  RH  013%=      5-min Rain = 0
KLD1 141800Z 21018KT 23/M07 A3016 RMK A01 T02341070  RH  013%=      5-min Rain = 0
KLD1 141805Z 22018G23KT 24/M07 A3016 RMK A01 T02361073  RH  012%=      5-min Rain = 0
KLD1 141810Z 21017G23KT 24/M07 A3016 RMK A01 T02391072  RH  012%=      5-min Rain = 0
KLD1 141815Z 21017G24KT 24/M07 A3015 RMK A01 T02401071  RH  012%=      5-min Rain = 0
KLD1 141820Z 22018G24KT 24/M07 A3015 RMK A01 T02411073  RH  012%=      5-min Rain = 0
KLD1 141825Z 22018G24KT 24/M07 A3014 RMK A01 T02411074  RH  012%=      5-min Rain = 0
KLD1 141830Z 23019G25KT 24/M08 A3014 RMK A01 T02411076  RH  012%=      5-min Rain = 0
KLD1 141835Z 22017G23KT 25/M08 A3014 RMK A01 T02451075  RH  011%=      5-min Rain = 0
KLD1 141840Z 21019G24KT 25/M08 A3014 RMK A01 T02451075  RH  011%=      5-min Rain = 0
KLD1 141845Z 22018G23KT 25/M08 A3013 RMK A01 T02461076  RH  011%=      5-min Rain = 0
KLD1 141850Z 22019G26KT 25/M08 A3013 RMK A01 T02481079  RH  011%=      5-min Rain = 0
KLD1 141855Z 22019G27KT 25/M08 A3013 RMK A01 T02521081  RH  011%=      5-min Rain = 0
KLD1 141900Z 22017G23KT 25/M08 A3013 RMK A01 T02541084  RH  010%=      5-min Rain = 0
KLD1 141905Z 22019G24KT 25/M09 A3012 RMK A01 T02531086  RH  010%=      5-min Rain = 0
KLD1 141910Z 22018G24KT 25/M09 A3012 RMK A01 T02541086  RH  010%=      5-min Rain = 0
KLD1 141915Z 22018G23KT 26/M08 A3012 RMK A01 T02561083  RH  010%=      5-min Rain = 0
KLD1 141920Z 21017G25KT 26/M08 A3011 RMK A01 T02591083  RH  010%=      5-min Rain = 0
KLD1 141925Z 22017G22KT 26/M08 A3011 RMK A01 T02601083  RH  010%=      5-min Rain = 0
KLD1 141930Z 22018G25KT 26/M08 A301 RMK A01 T02611082  RH  010%=      5-min Rain = 0
KLD1 141935Z 22016G21KT 26/M08 A301 RMK A01 T02641081  RH  010%=      5-min Rain = 0
KLD1 141940Z 22019G26KT 26/M08 A3009 RMK A01 T02631079  RH  010%=      5-min Rain = 0
KLD1 141945Z 22018G29KT 26/M08 A3009 RMK A01 T02621078  RH  010%=      5-min Rain = 0
KLD1 141950Z 22019G26KT 26/M07 A3009 RMK A01 T02641073  RH  010%=      5-min Rain = 0
KLD1 141955Z 23016G22KT 27/M07 A3008 RMK A01 T02681068  RH  011%=      5-min Rain = 0
KLD1 142000Z 22019KT 27/M07 A3008 RMK A01 T02661067  RH  011%=      5-min Rain = 0
KLD1 142005Z 23017KT 27/M06 A3007 RMK A01 T02671064  RH  011%=      5-min Rain = 0
KLD1 142010Z 22019G26KT 27/M06 A3007 RMK A01 T02691061  RH  011%=      5-min Rain = 0
KLD1 142015Z 22018G25KT 27/M06 A3006 RMK A01 T02721060  RH  011%=      5-min Rain = 0
KLD1 142020Z 22019G29KT 27/M06 A3006 RMK A01 T02741061  RH  011%=      5-min Rain = 0
KLD1 142025Z 22024G31KT 27/M05 A3006 RMK A01 T02741047  RH  012%=      5-min Rain = 0
KLD1 142030Z 23021G31KT 28/M04 A3005 RMK A01 T02771043  RH  012%=      5-min Rain = 0
KLD1 142035Z 23023G29KT 28/M05 A3005 RMK A01 T02761045  RH  012%=      5-min Rain = 0
KLD1 142040Z 22022G30KT 28/M04 A3005 RMK A01 T02781044  RH  012%=      5-min Rain = 0
KLD1 142045Z 23023G30KT 28/M04 A3005 RMK A01 T02791037  RH  013%=      5-min Rain = 0
KLD1 142050Z 22022G28KT 28/M04 A3005 RMK A01 T02781041  RH  012%=      5-min Rain = 0
KLD1 142055Z 22023G29KT 28/M04 A3004 RMK A01 T02781038  RH  013%=      5-min Rain = 0
KLD1 142100Z 22024G35KT 28/M03 A3004 RMK A01 T02781033  RH  013%=      5-min Rain = 0
KLD1 142105Z 22025G31KT 28/M03 A3004 RMK A01 T02761033  RH  013%=      5-min Rain = 0
KLD1 142110Z 22024G33KT 28/M03 A3004 RMK A01 T02751033  RH  013%=      5-min Rain = 0
KLD1 142115Z 22022G30KT 28/M04 A3004 RMK A01 T02781035  RH  013%=      5-min Rain = 0
KLD1 142120Z 22026G34KT 27/M04 A3003 RMK A01 T02731035  RH  013%=      5-min Rain = 0
KLD1 142125Z 22026G32KT 27/M04 A3003 RMK A01 T02691036  RH  013%=      5-min Rain = 0
KLD1 142130Z 21026G37KT 27/M04 A3003 RMK A01 T02691038  RH  013%=      5-min Rain = 0
KLD1 142135Z 22025G31KT 28/M04 A3003 RMK A01 T02761040  RH  012%=      5-min Rain = 0
KLD1 142140Z 22022G28KT 28/M04 A3002 RMK A01 T02751042  RH  012%=      5-min Rain = 0
KLD1 142145Z 23021G27KT 27/M04 A3002 RMK A01 T02741043  RH  012%=      5-min Rain = 0
KLD1 142150Z 21024G31KT 27/M04 A3002 RMK A01 T02731042  RH  013%=      5-min Rain = 0
KLD1 142155Z 21022G33KT 27/M04 A3002 RMK A01 T02691042  RH  013%=      5-min Rain = 0
KLD1 142200Z 21024G36KT 27/M04 A3002 RMK A01 T02671041  RH  013%=      5-min Rain = 0
KLD1 142205Z 22024G32KT 27/M04 A3002 RMK A01 T02711039  RH  013%=      5-min Rain = 0
KLD1 142210Z 22024G31KT 27/M04 A3002 RMK A01 T02701038  RH  013%=      5-min Rain = 0
KLD1 142215Z 23024G30KT 27/M04 A3002 RMK A01 T02681039  RH  013%=      5-min Rain = 0
KLD1 142220Z 22022G30KT 26/M04 A3002 RMK A01 T02641038  RH  014%=      5-min Rain = 0
KLD1 142225Z 22023G29KT 26/M04 A3002 RMK A01 T02621041  RH  013%=      5-min Rain = 0
KLD1 142230Z 22023G32KT 27/M04 A3001 RMK A01 T02661040  RH  013%=      5-min Rain = 0
KLD1 142235Z 23025G32KT 27/M04 A3001 RMK A01 T02651037  RH  014%=      5-min Rain = 0
KLD1 142240Z 23022G29KT 26/M04 A3001 RMK A01 T02621039  RH  014%=      5-min Rain = 0
KLD1 142245Z 23024G30KT 27/M04 A3001 RMK A01 T02651039  RH  013%=      5-min Rain = 0
KLD1 142250Z 22022G29KT 27/M04 A3001 RMK A01 T02671040  RH  013%=      5-min Rain = 0
KLD1 142255Z 23021G27KT 27/M04 A3001 RMK A01 T02651041  RH  013%=      5-min Rain = 0
KLD1 142300Z 23021G29KT 26/M04 A3001 RMK A01 T02631043  RH  013%=      5-min Rain = 0
KLD1 142305Z 23018G25KT 26/M04 A3001 RMK A01 T02621043  RH  013%=      5-min Rain = 0
KLD1 142310Z 22020G26KT 26/M04 A3001 RMK A01 T02611044  RH  013%=      5-min Rain = 0
KLD1 142315Z 22021G26KT 26/M05 A3001 RMK A01 T02591046  RH  013%=      5-min Rain = 0
KLD1 142320Z 22020G27KT 26/M05 A3001 RMK A01 T02591046  RH  013%=      5-min Rain = 0
KLD1 142325Z 22019G25KT 26/M05 A3001 RMK A01 T02571047  RH  013%=      5-min Rain = 0
KLD1 142330Z 22017KT 26/M05 A3001 RMK A01 T02551049  RH  013%=      5-min Rain = 0
KLD1 142335Z 21014G20KT 25/M05 A3001 RMK A01 T02531051  RH  013%=      5-min Rain = 0
KLD1 142340Z 22018G24KT 25/M05 A3001 RMK A01 T02531051  RH  013%=      5-min Rain = 0
KLD1 142345Z 23019G25KT 25/M05 A30 RMK A01 T02511052  RH  013%=      5-min Rain = 0
KLD1 142350Z 23016G21KT 25/M06 A3001 RMK A01 T02471055  RH  013%=      5-min Rain = 0
KLD1 142355Z 23015G21KT 24/M06 A30 RMK A01 T02441055  RH  013%=      5-min Rain = 0
KLD1 150000Z 23014KT 24/M06 A30 RMK A01 T02421055  RH  014%=      5-min Rain = 0
KLD1 150005Z 23013G18KT 24/M05 A30 RMK A01 T02391054  RH  014%=      5-min Rain = 0
KLD1 150010Z 23012KT 24/M05 A30 RMK A01 T02361053  RH  014%=      5-min Rain = 0
KLD1 150015Z 23010KT 23/M05 A30 RMK A01 T02321053  RH  015%=      5-min Rain = 0
KLD1 150020Z 23011KT 23/M05 A30 RMK A01 T02291052  RH  015%=      5-min Rain = 0
KLD1 150025Z 24010KT 23/M05 A3001 RMK A01 T02261051  RH  015%=      5-min Rain = 0
KLD1 150030Z 24009KT 22/M05 A3001 RMK A01 T02221051  RH  016%=      5-min Rain = 0
KLD1 150035Z 23010KT 22/M05 A3001 RMK A01 T02181050  RH  016%=      5-min Rain = 0
KLD1 150040Z 23010KT 22/M05 A3001 RMK A01 T02161048  RH  017%=      5-min Rain = 0
KLD1 150045Z 23010KT 21/M05 A3001 RMK A01 T02141048  RH  017%=      5-min Rain = 0
KLD1 150050Z 23010KT 21/M05 A3001 RMK A01 T02131047  RH  017%=      5-min Rain = 0
KLD1 150055Z 23010KT 21/M05 A3001 RMK A01 T02101046  RH  018%=      5-min Rain = 0
KLD1 150100Z 23009KT 21/M05 A3001 RMK A01 T02081046  RH  018%=      5-min Rain = 0
KLD1 150105Z 23010KT 21/M05 A3001 RMK A01 T02051045  RH  018%=      5-min Rain = 0
KLD1 150110Z 23010KT 20/M05 A3001 RMK A01 T02041045  RH  018%=      5-min Rain = 0
KLD1 150115Z 23011KT 20/M04 A3001 RMK A01 T02041044  RH  019%=      5-min Rain = 0
KLD1 150120Z 23010KT 20/M04 A3001 RMK A01 T02031043  RH  019%=      5-min Rain = 0
KLD1 150125Z 22009KT 20/M04 A3001 RMK A01 T02011042  RH  019%=      5-min Rain = 0
KLD1 150130Z 22008KT 20/M04 A3001 RMK A01 T01981041  RH  020%=      5-min Rain = 0
KLD1 150135Z 21008KT 19/M04 A3002 RMK A01 T01941041  RH  020%=      5-min Rain = 0
KLD1 150140Z 21007KT 19/M04 A3002 RMK A01 T01891042  RH  021%=      5-min Rain = 0
KLD1 150145Z 21007KT 18/M04 A3002 RMK A01 T01841042  RH  022%=      5-min Rain = 0
KLD1 150150Z 22007KT 18/M04 A3002 RMK A01 T01801041  RH  022%=      5-min Rain = 0
KLD1 150155Z 22007KT 18/M04 A3002 RMK A01 T01781041  RH  022%=      5-min Rain = 0
KLD1 150200Z 21007KT 17/M04 A3002 RMK A01 T01741041  RH  023%=      5-min Rain = 0
KLD1 150205Z 21006KT 17/M04 A3002 RMK A01 T01721041  RH  023%=      5-min Rain = 0
KLD1 150210Z 22007KT 17/M04 A3002 RMK A01 T01681040  RH  024%=      5-min Rain = 0
KLD1 150215Z 22007KT 17/M04 A3002 RMK A01 T01731038  RH  024%=      5-min Rain = 0
KLD1 150220Z 20007KT 18/M04 A3002 RMK A01 T01761038  RH  023%=      5-min Rain = 0
KLD1 150225Z 19008KT 16/M05 A3003 RMK A01 T01641045  RH  024%=      5-min Rain = 0
KLD1 150230Z 20009KT 16/M04 A3002 RMK A01 T01641040  RH  025%=      5-min Rain = 0
KLD1 150235Z 20009KT 17/M04 A3002 RMK A01 T01721036  RH  024%=      5-min Rain = 0
KLD1 150240Z 20010KT 18/M03 A3002 RMK A01 T01821033  RH  023%=      5-min Rain = 0
KLD1 150245Z 19011KT 19/M03 A3002 RMK A01 T01861033  RH  023%=      5-min Rain = 0
KLD1 150250Z 20010KT 19/M03 A3003 RMK A01 T01861032  RH  023%=      5-min Rain = 0
KLD1 150255Z 20011KT 19/M03 A3003 RMK A01 T01901031  RH  022%=      5-min Rain = 0
KLD1 150300Z 20010KT 19/M03 A3003 RMK A01 T01931031  RH  022%=      5-min Rain = 0
KLD1 150305Z 20014KT 20/M03 A3003 RMK A01 T01991027  RH  022%=      5-min Rain = 0
KLD1 150310Z 20013KT 20/M03 A3003 RMK A01 T02011028  RH  021%=      5-min Rain = 0
KLD1 150315Z 20012KT 20/M03 A3003 RMK A01 T01981027  RH  022%=      5-min Rain = 0
KLD1 150320Z 21011KT 20/M03 A3003 RMK A01 T01961026  RH  022%=      5-min Rain = 0
KLD1 150325Z 21010KT 20/M02 A3004 RMK A01 T01951023  RH  023%=      5-min Rain = 0
KLD1 150330Z 22009KT 19/M02 A3004 RMK A01 T01941021  RH  024%=      5-min Rain = 0
KLD1 150335Z 21009KT 19/M02 A3003 RMK A01 T01911021  RH  024%=      5-min Rain = 0
KLD1 150340Z 21009KT 19/M02 A3003 RMK A01 T01891021  RH  024%=      5-min Rain = 0
KLD1 150345Z 22008KT 19/M02 A3003 RMK A01 T01871021  RH  025%=      5-min Rain = 0
KLD1 150350Z 22008KT 18/M02 A3003 RMK A01 T01821021  RH  025%=      5-min Rain = 0
KLD1 150355Z 22009KT 18/M02 A3003 RMK A01 T01811020  RH  026%=      5-min Rain = 0
KLD1 150400Z 21009KT 18/M02 A3003 RMK A01 T01811019  RH  026%=      5-min Rain = 0
KLD1 150405Z 21010KT 18/M02 A3004 RMK A01 T01811016  RH  026%=      5-min Rain = 0
KLD1 150410Z 20009KT 18/M02 A3004 RMK A01 T01821016  RH  026%=      5-min Rain = 0
KLD1 150415Z 19009KT 18/M02 A3004 RMK A01 T01781018  RH  027%=      5-min Rain = 0
KLD1 150420Z 19009KT 17/M02 A3004 RMK A01 T01741019  RH  027%=      5-min Rain = 0
KLD1 150425Z 19009KT 17/M02 A3004 RMK A01 T01741017  RH  027%=      5-min Rain = 0
KLD1 150430Z 19009KT 17/M02 A3004 RMK A01 T01741018  RH  027%=      5-min Rain = 0
KLD1 150435Z 19010KT 17/M02 A3004 RMK A01 T01741019  RH  027%=      5-min Rain = 0
KLD1 150440Z 20010KT 18/M02 A3004 RMK A01 T01751019  RH  027%=      5-min Rain = 0
KLD1 150445Z 20011KT 18/M02 A3004 RMK A01 T01771017  RH  027%=      5-min Rain = 0
KLD1 150450Z 21011KT 18/M02 A3004 RMK A01 T01811015  RH  027%=      5-min Rain = 0
KLD1 150455Z 22011KT 18/M01 A3004 RMK A01 T01821014  RH  027%=      5-min Rain = 0
KLD1 150500Z 22012KT 18/M01 A3004 RMK A01 T01841012  RH  027%=      5-min Rain = 0
KLD1 150505Z 22013KT 18/M01 A3004 RMK A01 T01841011  RH  027%=      5-min Rain = 0
KLD1 150510Z 22011KT 18/M01 A3004 RMK A01 T01841010  RH  027%=      5-min Rain = 0
KLD1 150515Z 22010KT 18/M01 A3004 RMK A01 T01821010  RH  027%=      5-min Rain = 0
KLD1 150520Z 22009KT 18/M01 A3004 RMK A01 T01791010  RH  028%=      5-min Rain = 0
KLD1 150525Z 22009KT 18/M01 A3004 RMK A01 T01751010  RH  029%=      5-min Rain = 0
KLD1 150530Z 22009KT 17/M01 A3004 RMK A01 T01721010  RH  029%=      5-min Rain = 0
KLD1 150535Z 22009KT 17/M01 A3004 RMK A01 T01711009  RH  030%=      5-min Rain = 0
KLD1 150540Z 22009KT 17/M01 A3003 RMK A01 T01721008  RH  030%=      5-min Rain = 0
KLD1 150545Z 22010KT 17/M01 A3003 RMK A01 T01741007  RH  030%=      5-min Rain = 0
KLD1 150550Z 23010KT 17/M01 A3003 RMK A01 T01741007  RH  030%=      5-min Rain = 0
KLD1 150555Z 23011KT 18/M01 A3003 RMK A01 T01751007  RH  029%=      5-min Rain = 0
KLD1 150600Z 23010KT 18/M01 A3003 RMK A01 T01761006  RH  029%=      5-min Rain = 0

Page generated in 0.0093 seconds.